createdAt,value
2023-01-23T00:01:36.386Z,21.63
2023-01-23T00:04:05.277Z,16.57
2023-01-23T00:06:33.593Z,14.33
2023-01-23T00:09:03.962Z,23.47
2023-01-23T00:11:32.654Z,15.63
2023-01-23T00:14:03.859Z,23.63
2023-01-23T00:16:34.114Z,16.03
2023-01-23T00:19:02.403Z,26.97
2023-01-23T00:21:31.247Z,14.30
2023-01-23T00:24:01.524Z,18.17
2023-01-23T00:26:32.961Z,22.33
2023-01-23T00:29:03.293Z,16.70
2023-01-23T00:31:34.775Z,14.40
2023-01-23T00:34:05.441Z,14.93
2023-01-23T00:36:35.469Z,15.10
2023-01-23T00:39:04.472Z,14.67
2023-01-23T00:41:32.454Z,18.17
2023-01-23T00:44:03.041Z,18.90
2023-01-23T00:46:31.148Z,18.47
2023-01-23T00:48:59.274Z,18.47
2023-01-23T00:51:27.612Z,18.13
2023-01-23T00:53:55.730Z,18.97
2023-01-23T00:56:24.332Z,17.67
2023-01-23T00:58:52.464Z,18.80
2023-01-23T01:01:22.989Z,13.27
2023-01-23T01:03:51.335Z,27.47
2023-01-23T01:06:19.388Z,17.23
2023-01-23T01:08:47.617Z,11.40
2023-01-23T01:11:15.669Z,10.70
2023-01-23T01:13:44.585Z,12.47
2023-01-23T01:16:12.885Z,11.60
2023-01-23T01:18:43.009Z,14.77
2023-01-23T01:21:12.727Z,17.63
2023-01-23T01:23:41.699Z,14.37
2023-01-23T01:26:11.052Z,16.10
2023-01-23T01:28:42.292Z,15.83
2023-01-23T01:31:12.957Z,12.60
2023-01-23T01:33:43.068Z,20.00
2023-01-23T01:36:12.208Z,19.13
2023-01-23T01:38:40.405Z,27.43
2023-01-23T01:41:09.876Z,12.13
2023-01-23T01:43:38.121Z,14.60
2023-01-23T01:46:14.170Z,13.30
2023-01-23T01:48:48.954Z,26.73
2023-01-23T01:51:25.844Z,25.13
2023-01-23T01:54:03.616Z,9.63
2023-01-23T01:56:36.038Z,16.03
2023-01-23T01:59:05.329Z,9.83
2023-01-23T02:01:33.935Z,13.37
2023-01-23T02:04:07.277Z,16.33
2023-01-23T02:06:35.242Z,15.87
2023-01-23T02:09:07.309Z,11.73
2023-01-23T02:11:35.807Z,14.60
2023-01-23T02:14:04.247Z,12.70
2023-01-23T02:16:40.403Z,13.90
2023-01-23T02:19:19.604Z,15.93
2023-01-23T02:21:51.204Z,23.13
2023-01-23T02:24:31.351Z,13.90
2023-01-23T02:27:03.119Z,17.47
2023-01-23T02:29:42.748Z,16.33
2023-01-23T02:32:11.315Z,12.97
2023-01-23T02:34:39.415Z,14.07
2023-01-23T02:37:10.197Z,19.07
2023-01-23T02:39:39.568Z,18.43
2023-01-23T02:42:11.002Z,14.80
2023-01-23T02:44:58.100Z,18.63
2023-01-23T02:47:26.092Z,14.70
2023-01-23T02:49:57.361Z,12.87
2023-01-23T02:52:25.519Z,15.90
2023-01-23T02:54:53.549Z,17.40
2023-01-23T02:57:22.913Z,11.50
2023-01-23T03:00:08.917Z,10.53
2023-01-23T03:02:39.268Z,12.87
2023-01-23T03:05:10.682Z,13.90
2023-01-23T03:07:39.106Z,15.37
2023-01-23T03:10:08.595Z,22.37
2023-01-23T03:12:43.298Z,14.47
2023-01-23T03:15:12.732Z,21.73
2023-01-23T03:17:40.861Z,16.77
2023-01-23T03:20:09.975Z,11.30
2023-01-23T03:22:38.062Z,15.60
2023-01-23T03:25:09.995Z,12.63
2023-01-23T03:27:39.831Z,12.17
2023-01-23T03:30:15.858Z,14.83
2023-01-23T03:32:45.208Z,15.30
2023-01-23T03:35:16.654Z,10.37
2023-01-23T03:37:46.258Z,7.70
2023-01-23T03:40:35.967Z,14.20
2023-01-23T03:43:07.099Z,14.97
2023-01-23T03:45:37.595Z,11.93
2023-01-23T03:48:05.859Z,11.83
2023-01-23T03:50:34.765Z,13.00
2023-01-23T03:53:02.874Z,17.50
2023-01-23T03:55:31.071Z,12.00
2023-01-23T03:57:59.091Z,11.43
2023-01-23T04:00:32.042Z,11.10
2023-01-23T04:03:05.371Z,11.70
2023-01-23T04:05:33.533Z,13.90
2023-01-23T04:08:03.278Z,9.73
2023-01-23T04:10:31.665Z,10.87
2023-01-23T04:13:06.553Z,9.33
2023-01-23T04:15:36.230Z,11.73
2023-01-23T04:18:07.612Z,13.03
2023-01-23T04:20:35.947Z,17.53
2023-01-23T04:23:04.524Z,9.97
2023-01-23T04:25:32.545Z,9.43
2023-01-23T04:28:00.983Z,15.97
2023-01-23T04:30:29.390Z,18.97
2023-01-23T04:33:02.810Z,11.73
2023-01-23T04:35:31.003Z,8.97
2023-01-23T04:37:59.782Z,14.77
2023-01-23T04:40:28.316Z,7.83
2023-01-23T04:43:00.338Z,13.63
2023-01-23T04:45:37.533Z,13.90
2023-01-23T04:48:18.778Z,7.97
2023-01-23T04:50:46.951Z,9.43
2023-01-23T04:53:15.766Z,11.60
2023-01-23T04:55:44.913Z,10.97
2023-01-23T04:58:16.496Z,7.47
2023-01-23T05:00:45.178Z,7.53
2023-01-23T05:03:14.395Z,18.57
2023-01-23T05:05:49.547Z,14.47
2023-01-23T05:08:17.575Z,11.20
2023-01-23T05:10:52.569Z,16.70
2023-01-23T05:13:21.795Z,10.10
2023-01-23T05:15:49.894Z,19.30
2023-01-23T05:18:18.397Z,12.90
2023-01-23T05:20:49.177Z,13.63
2023-01-23T05:23:17.220Z,15.67
2023-01-23T05:25:51.957Z,11.63
2023-01-23T05:28:20.105Z,10.30
2023-01-23T05:30:53.653Z,11.13
2023-01-23T05:33:28.868Z,9.10
2023-01-23T05:36:01.526Z,14.47
2023-01-23T05:38:29.904Z,12.27
2023-01-23T05:40:58.319Z,23.43
2023-01-23T05:44:04.338Z,8.60
2023-01-23T05:46:43.882Z,14.67
2023-01-23T05:49:12.025Z,6.90
2023-01-23T05:51:41.785Z,8.40
2023-01-23T05:54:11.763Z,9.47
2023-01-23T05:56:44.110Z,15.13
2023-01-23T05:59:31.104Z,12.90
2023-01-23T06:02:22.522Z,11.40
2023-01-23T06:05:19.972Z,10.47
2023-01-23T06:08:04.279Z,9.33
2023-01-23T06:10:32.390Z,15.67
2023-01-23T06:13:00.817Z,9.63
2023-01-23T06:15:29.261Z,11.97
2023-01-23T06:17:59.234Z,12.10
2023-01-23T06:20:27.929Z,17.13
2023-01-23T06:22:56.077Z,11.37
2023-01-23T06:25:25.563Z,17.47
2023-01-23T06:27:55.644Z,10.87
2023-01-23T06:30:26.102Z,9.00
2023-01-23T06:32:54.229Z,12.90
2023-01-23T06:35:28.513Z,12.27
2023-01-23T06:37:56.753Z,14.50
2023-01-23T06:40:27.019Z,11.77
2023-01-23T06:43:13.483Z,8.97
2023-01-23T06:45:45.326Z,11.47
2023-01-23T06:48:13.927Z,11.20
2023-01-23T06:50:44.309Z,12.33
2023-01-23T06:53:16.065Z,18.30
2023-01-23T06:55:47.050Z,19.07
2023-01-23T06:58:16.359Z,15.23
2023-01-23T07:00:45.232Z,20.13
2023-01-23T07:03:25.926Z,11.13
2023-01-23T07:05:54.098Z,9.50
2023-01-23T07:08:22.070Z,9.33
2023-01-23T07:10:53.132Z,18.40
2023-01-23T07:13:21.298Z,12.20
2023-01-23T07:15:51.708Z,14.37
2023-01-23T07:18:19.828Z,16.80
2023-01-23T07:20:48.324Z,7.80
2023-01-23T07:23:17.028Z,12.43
2023-01-23T07:25:45.661Z,10.67
2023-01-23T07:28:15.678Z,13.83
2023-01-23T07:30:43.720Z,15.63
2023-01-23T07:33:12.911Z,10.17
2023-01-23T07:35:41.036Z,15.10
2023-01-23T07:38:09.054Z,9.50
2023-01-23T07:40:38.907Z,10.50
2023-01-23T07:43:07.229Z,14.93
2023-01-23T07:45:37.811Z,14.67
2023-01-23T07:48:06.509Z,13.23
2023-01-23T07:50:35.847Z,15.40
2023-01-23T07:53:04.199Z,13.93
2023-01-23T07:55:32.290Z,16.57
2023-01-23T07:58:00.275Z,16.07
2023-01-23T08:00:30.201Z,15.00
2023-01-23T08:03:00.396Z,18.80
2023-01-23T08:05:28.540Z,12.00
2023-01-23T08:08:11.985Z,22.80
2023-01-23T08:10:41.405Z,17.20
2023-01-23T08:13:09.585Z,17.97
2023-01-23T08:15:38.721Z,14.27
2023-01-23T08:18:08.552Z,15.97
2023-01-23T08:20:36.755Z,13.43
2023-01-23T08:23:04.874Z,17.57
2023-01-23T08:25:32.894Z,20.60
2023-01-23T08:28:00.932Z,10.47
2023-01-23T08:30:29.044Z,17.03
2023-01-23T08:32:57.615Z,16.27
2023-01-23T08:35:27.065Z,23.33
2023-01-23T08:37:55.559Z,22.00
2023-01-23T08:40:23.620Z,17.67
2023-01-23T08:42:51.694Z,17.63
2023-01-23T08:45:19.730Z,18.03
2023-01-23T08:47:47.791Z,21.73
2023-01-23T08:50:16.401Z,16.33
2023-01-23T08:52:45.886Z,17.27
2023-01-23T08:55:13.984Z,16.27
2023-01-23T08:57:42.154Z,21.27
2023-01-23T09:00:12.070Z,12.57
2023-01-23T09:02:40.296Z,13.00
2023-01-23T09:05:09.638Z,17.40
2023-01-23T09:07:38.116Z,12.40
2023-01-23T09:10:09.438Z,13.20
2023-01-23T09:12:37.455Z,21.53
2023-01-23T09:15:06.112Z,13.53
2023-01-23T09:17:34.213Z,10.37
2023-01-23T09:20:05.891Z,21.23
2023-01-23T09:22:34.182Z,13.07
2023-01-23T09:25:02.341Z,11.30
2023-01-23T09:27:31.902Z,20.00
2023-01-23T09:30:00.257Z,15.07
2023-01-23T09:32:28.236Z,15.87
2023-01-23T09:34:56.279Z,12.63
2023-01-23T09:37:24.286Z,10.17
2023-01-23T09:39:52.490Z,17.47
2023-01-23T09:42:35.239Z,13.00
2023-01-23T09:45:08.265Z,15.70
2023-01-23T09:47:40.873Z,9.33
2023-01-23T09:50:16.799Z,5.70
2023-01-23T09:52:48.409Z,13.13
2023-01-23T09:55:24.064Z,8.90
2023-01-23T09:57:55.781Z,12.40
2023-01-23T10:00:29.221Z,19.63
2023-01-23T10:02:58.205Z,12.20
2023-01-23T10:05:35.683Z,16.20
2023-01-23T10:08:17.886Z,5.50
2023-01-23T10:10:59.556Z,11.27
2023-01-23T10:13:43.411Z,13.10
2023-01-23T10:16:25.307Z,12.40
2023-01-23T10:19:03.821Z,14.80
2023-01-23T10:21:39.119Z,10.07
2023-01-23T10:24:26.009Z,11.47
2023-01-23T10:26:57.224Z,10.47
2023-01-23T10:29:31.971Z,11.00
2023-01-23T10:32:05.689Z,8.30
2023-01-23T10:34:43.791Z,8.90
2023-01-23T10:37:19.666Z,4.53
2023-01-23T10:39:51.879Z,9.87
2023-01-23T10:42:23.726Z,5.33
2023-01-23T10:44:52.377Z,7.30
2023-01-23T10:47:32.840Z,3.83
2023-01-23T10:50:01.811Z,10.40
2023-01-23T10:52:37.789Z,3.90
2023-01-23T10:55:07.294Z,6.57
2023-01-23T10:57:48.566Z,4.53
2023-01-23T11:00:27.639Z,8.93
2023-01-23T11:02:57.427Z,10.97
2023-01-23T11:05:53.007Z,7.10
2023-01-23T11:08:27.112Z,4.57
2023-01-23T11:10:55.557Z,5.37
2023-01-23T11:13:28.549Z,7.97
2023-01-23T11:15:57.916Z,5.03
2023-01-23T11:18:32.862Z,5.70
2023-01-23T11:21:01.894Z,4.57
2023-01-23T11:23:31.840Z,11.70
2023-01-23T11:25:59.984Z,5.57
2023-01-23T11:28:30.916Z,8.00
2023-01-23T11:31:14.690Z,6.20
2023-01-23T11:33:53.435Z,14.03
2023-01-23T11:36:42.091Z,12.50
2023-01-23T11:39:19.727Z,5.80
2023-01-23T11:41:48.659Z,10.03
2023-01-23T11:44:19.332Z,7.80
2023-01-23T11:46:59.834Z,7.57
2023-01-23T11:49:46.071Z,7.90
2023-01-23T11:52:29.935Z,6.70
2023-01-23T11:55:17.372Z,6.03
2023-01-23T11:58:01.278Z,5.57
2023-01-23T12:00:36.575Z,7.47
2023-01-23T12:03:43.344Z,5.83
2023-01-23T12:06:35.641Z,5.53
2023-01-23T12:09:12.212Z,6.03
2023-01-23T12:12:00.202Z,8.23
2023-01-23T12:14:36.143Z,6.23
2023-01-23T12:17:16.346Z,6.30
2023-01-23T12:20:21.344Z,5.30
2023-01-23T12:23:02.908Z,5.93
2023-01-23T12:25:35.048Z,5.37
2023-01-23T12:28:17.339Z,6.00
2023-01-23T12:31:00.378Z,7.47
2023-01-23T12:33:46.163Z,7.60
2023-01-23T12:36:27.958Z,12.70
2023-01-23T12:39:06.983Z,6.10
2023-01-23T12:41:40.408Z,5.50
2023-01-23T12:44:15.710Z,5.70
2023-01-23T12:46:50.226Z,6.10
2023-01-23T12:49:30.354Z,4.60
2023-01-23T12:52:02.601Z,5.60
2023-01-23T12:54:39.263Z,7.07
2023-01-23T12:57:09.240Z,3.80
2023-01-23T12:59:50.681Z,8.40
2023-01-23T13:02:26.769Z,8.83
2023-01-23T13:05:10.595Z,3.63
2023-01-23T13:07:48.459Z,11.43
2023-01-23T13:10:49.013Z,8.30
2023-01-23T13:13:18.727Z,8.50
2023-01-23T13:16:03.680Z,6.47
2023-01-23T13:18:52.756Z,4.87
2023-01-23T13:21:38.280Z,5.63
2023-01-23T13:24:48.657Z,3.90
2023-01-23T13:27:38.086Z,7.20
2023-01-23T13:30:31.546Z,6.97
2023-01-23T13:33:19.840Z,5.27
2023-01-23T13:35:56.027Z,4.57
2023-01-23T13:38:37.509Z,7.50
2023-01-23T13:41:29.590Z,4.60
2023-01-23T13:44:04.738Z,3.97
2023-01-23T14:20:39.624Z,5.13
2023-01-23T14:23:20.411Z,7.93
2023-01-23T14:25:49.217Z,6.67
2023-01-23T14:28:19.069Z,4.60
2023-01-23T14:30:58.076Z,2.67
2023-01-23T14:33:28.302Z,6.47
2023-01-23T14:35:57.414Z,5.60
2023-01-23T14:38:34.908Z,9.10
2023-01-23T14:41:08.265Z,3.90
2023-01-23T14:43:37.524Z,6.87
2023-01-23T14:46:09.147Z,6.27
2023-01-23T14:48:42.787Z,4.20
2023-01-23T14:51:19.616Z,4.33
2023-01-23T14:53:55.845Z,5.90
2023-01-23T14:56:28.621Z,7.20
2023-01-23T14:58:59.621Z,5.37
2023-01-23T15:01:29.182Z,5.27
2023-01-23T15:04:01.078Z,5.17
2023-01-23T15:06:31.137Z,8.40
2023-01-23T15:09:15.013Z,5.20
2023-01-23T15:11:43.217Z,5.60
2023-01-23T15:14:25.652Z,6.07
2023-01-23T15:17:01.169Z,8.23
2023-01-23T15:19:31.542Z,5.20
2023-01-23T15:22:08.029Z,8.60
2023-01-23T15:24:36.299Z,4.70
2023-01-23T15:27:07.665Z,5.10
2023-01-23T15:29:36.125Z,9.17
2023-01-23T15:32:04.368Z,4.97
2023-01-23T15:34:35.528Z,5.40
2023-01-23T15:37:06.971Z,7.33
2023-01-23T15:39:39.343Z,6.60
2023-01-23T15:42:27.460Z,14.37
2023-01-23T15:44:55.912Z,8.33
2023-01-23T15:47:23.926Z,13.57
2023-01-23T15:49:53.608Z,16.23
2023-01-23T15:52:24.215Z,13.20
2023-01-23T15:54:57.441Z,11.33
2023-01-23T15:57:25.484Z,7.00
2023-01-23T15:59:53.504Z,6.97
2023-01-23T16:02:33.164Z,6.77
2023-01-23T16:05:02.916Z,11.60
2023-01-23T16:07:34.363Z,10.07
2023-01-23T16:10:05.055Z,7.33
2023-01-23T16:12:35.352Z,6.07
2023-01-23T16:15:03.400Z,6.77
2023-01-23T16:17:31.375Z,7.83
2023-01-23T16:19:59.321Z,4.77
2023-01-23T16:22:29.660Z,6.77
2023-01-23T16:24:58.688Z,5.27
2023-01-23T16:27:27.698Z,8.83
2023-01-23T16:29:56.123Z,5.67
2023-01-23T16:32:25.011Z,8.40
2023-01-23T16:34:53.405Z,6.40
2023-01-23T16:37:21.441Z,5.43
2023-01-23T16:39:50.747Z,5.47
2023-01-23T16:42:22.125Z,6.40
2023-01-23T16:44:50.819Z,2.70
2023-01-23T16:47:18.890Z,4.87
2023-01-23T16:49:52.660Z,4.27
2023-01-23T16:52:25.018Z,3.30
2023-01-23T16:54:55.523Z,4.37
2023-01-23T16:57:24.793Z,4.80
2023-01-23T16:59:56.252Z,5.40
2023-01-23T17:02:29.526Z,4.50
2023-01-23T17:04:57.700Z,4.03
2023-01-23T17:07:25.694Z,4.97
2023-01-23T17:09:55.105Z,5.73
2023-01-23T17:12:27.657Z,4.37
2023-01-23T17:14:57.020Z,4.93
2023-01-23T17:17:31.045Z,5.17
2023-01-23T17:20:01.055Z,5.60
2023-01-23T17:22:31.407Z,6.33
2023-01-23T17:25:00.824Z,4.07
2023-01-23T17:27:28.945Z,5.70
2023-01-23T17:29:56.957Z,4.60
2023-01-23T17:32:30.364Z,5.60
2023-01-23T17:35:02.650Z,7.23
2023-01-23T17:37:31.582Z,6.00
2023-01-23T17:40:01.303Z,6.37
2023-01-23T17:42:29.251Z,4.30
2023-01-23T17:44:57.233Z,6.10
2023-01-23T17:47:25.662Z,4.10
2023-01-23T17:49:55.304Z,6.60
2023-01-23T17:52:24.901Z,8.00
2023-01-23T17:54:54.348Z,9.50
2023-01-23T17:57:23.874Z,5.73
2023-01-23T17:59:55.455Z,5.27
2023-01-23T18:02:28.038Z,7.17
2023-01-23T18:04:56.252Z,6.63
2023-01-23T18:07:24.603Z,4.90
2023-01-23T18:09:55.381Z,6.43
2023-01-23T18:12:33.980Z,12.33
2023-01-23T18:15:12.349Z,5.00
2023-01-23T18:17:48.145Z,5.67
2023-01-23T18:20:21.490Z,6.23
2023-01-23T18:22:50.325Z,6.83
2023-01-23T18:25:22.325Z,5.83
2023-01-23T18:27:55.328Z,3.90
2023-01-23T18:30:42.260Z,7.40
2023-01-23T18:33:46.840Z,9.43
2023-01-23T18:36:27.898Z,4.90
2023-01-23T18:39:12.873Z,7.67
2023-01-23T18:41:47.415Z,9.07
2023-01-23T18:44:24.659Z,7.50
2023-01-23T18:46:52.990Z,6.20
2023-01-23T18:49:32.429Z,7.73
2023-01-23T18:52:07.386Z,4.60
2023-01-23T18:54:43.053Z,6.07
2023-01-23T18:57:28.110Z,8.73
2023-01-23T19:00:03.836Z,6.27
2023-01-23T19:02:37.657Z,10.63
2023-01-23T19:05:30.686Z,7.87
2023-01-23T19:08:00.847Z,7.03
2023-01-23T19:10:34.590Z,6.40
2023-01-23T19:13:19.001Z,5.17
2023-01-23T19:15:55.968Z,7.80
2023-01-23T19:18:46.559Z,8.07
2023-01-23T19:21:18.376Z,13.77
2023-01-23T19:23:51.660Z,6.60
2023-01-23T19:26:20.387Z,5.43
2023-01-23T19:28:49.197Z,5.60
2023-01-23T19:31:22.390Z,10.53
2023-01-23T19:33:51.040Z,9.27
2023-01-23T19:36:19.582Z,8.00
2023-01-23T19:38:47.568Z,7.30
2023-01-23T19:41:20.531Z,9.47
2023-01-23T19:43:49.883Z,5.73
2023-01-23T19:46:20.470Z,6.37
2023-01-23T19:48:48.614Z,9.80
2023-01-23T19:51:19.439Z,7.40
2023-01-23T19:53:47.710Z,8.93
2023-01-23T19:56:18.128Z,7.90
2023-01-23T19:58:46.490Z,9.30
2023-01-23T20:01:23.840Z,10.20
2023-01-23T20:03:52.864Z,12.57
2023-01-23T20:06:21.080Z,15.40
2023-01-23T20:08:49.100Z,6.00
2023-01-23T20:11:17.262Z,5.27
2023-01-23T20:13:45.337Z,8.23
2023-01-23T20:16:17.944Z,8.37
2023-01-23T20:18:48.990Z,9.67
2023-01-23T20:21:19.081Z,8.23
2023-01-23T20:23:47.431Z,10.70
2023-01-23T20:26:16.515Z,9.97
2023-01-23T20:28:45.121Z,13.67
2023-01-23T20:31:14.534Z,7.20
2023-01-23T20:33:42.755Z,7.70
2023-01-23T20:36:13.319Z,10.47
2023-01-23T20:38:41.591Z,5.60
2023-01-23T20:41:11.480Z,12.00
2023-01-23T20:43:41.108Z,12.40
2023-01-23T20:46:10.149Z,7.40
2023-01-23T20:48:40.284Z,12.20
2023-01-23T20:51:09.956Z,10.13
2023-01-23T20:53:40.338Z,10.20
2023-01-23T20:56:10.408Z,6.43
2023-01-23T20:58:58.069Z,8.87
2023-01-23T21:01:27.633Z,10.53
2023-01-23T21:03:55.782Z,14.00
2023-01-23T21:06:23.954Z,7.73
2023-01-23T21:08:54.049Z,6.27
2023-01-23T21:11:23.877Z,10.10
2023-01-23T21:13:53.535Z,5.43
2023-01-23T21:16:21.871Z,7.17
2023-01-23T21:18:49.853Z,8.63
2023-01-23T21:21:20.182Z,12.13
2023-01-23T21:23:50.325Z,10.30
2023-01-23T21:26:22.250Z,6.73
2023-01-23T21:28:51.607Z,11.03
2023-01-23T21:31:21.993Z,8.73
2023-01-23T21:33:50.329Z,12.17
2023-01-23T21:36:20.258Z,7.33
2023-01-23T21:38:50.730Z,5.10
2023-01-23T21:41:21.420Z,6.30
2023-01-23T21:43:49.465Z,7.70
2023-01-23T21:46:17.981Z,5.80
2023-01-23T21:48:45.973Z,13.77
2023-01-23T21:51:16.228Z,8.60
2023-01-23T21:53:46.182Z,7.23
2023-01-23T21:56:16.039Z,7.30
2023-01-23T21:58:46.952Z,6.47
2023-01-23T22:01:37.515Z,8.60
2023-01-23T22:04:09.035Z,9.27
2023-01-23T22:06:38.953Z,5.73
2023-01-23T22:09:07.794Z,6.83
2023-01-23T22:11:35.884Z,6.20
2023-01-23T22:14:05.384Z,3.97
2023-01-23T22:16:47.496Z,6.13
2023-01-23T22:19:18.109Z,8.13
2023-01-23T22:21:46.668Z,12.60
2023-01-23T22:24:15.336Z,8.37
2023-01-23T22:26:43.486Z,4.87
2023-01-23T22:29:13.919Z,6.73
2023-01-23T22:31:42.505Z,8.70
2023-01-23T22:34:10.828Z,7.20
2023-01-23T22:36:38.925Z,4.70
2023-01-23T22:39:07.040Z,5.73
2023-01-23T22:41:35.088Z,6.37
2023-01-23T22:44:03.082Z,5.90
2023-01-23T22:46:33.241Z,7.17
2023-01-23T22:49:01.342Z,7.27
2023-01-23T22:51:29.977Z,9.70
2023-01-23T22:53:59.043Z,7.87
2023-01-23T22:56:28.337Z,6.47
2023-01-23T22:58:57.510Z,5.43
2023-01-23T23:01:27.025Z,9.10
2023-01-23T23:03:57.523Z,5.43
2023-01-23T23:06:25.559Z,6.60
2023-01-23T23:08:53.801Z,5.67
2023-01-23T23:11:23.317Z,5.80
2023-01-23T23:13:51.818Z,8.53
2023-01-23T23:16:21.995Z,4.70
2023-01-23T23:18:52.658Z,8.20
2023-01-23T23:21:25.489Z,7.30
2023-01-23T23:23:56.633Z,7.23
2023-01-23T23:26:26.395Z,5.50
2023-01-23T23:28:54.881Z,5.30
2023-01-23T23:31:22.998Z,8.10
2023-01-23T23:33:51.063Z,5.53
2023-01-23T23:36:19.479Z,4.20
2023-01-23T23:38:48.919Z,11.73
2023-01-23T23:41:17.735Z,8.60
2023-01-23T23:43:46.369Z,8.50
2023-01-23T23:46:15.307Z,7.33
2023-01-23T23:48:46.005Z,6.40
2023-01-23T23:51:15.697Z,9.20
2023-01-23T23:53:43.967Z,7.47
2023-01-23T23:56:20.283Z,6.60
2023-01-23T23:58:48.288Z,5.47
